createdAt,value
2019-02-27T00:00:16.577Z,41.27
2019-02-27T00:02:47.358Z,40.57
2019-02-27T00:05:18.138Z,38.67
2019-02-27T00:07:48.664Z,41.13
2019-02-27T00:10:19.089Z,39.03
2019-02-27T00:12:51.731Z,38.20
2019-02-27T00:15:21.678Z,38.40
2019-02-27T00:17:52.177Z,40.47
2019-02-27T00:20:22.845Z,34.93
2019-02-27T00:22:53.281Z,38.93
2019-02-27T00:25:23.689Z,36.33
2019-02-27T00:27:54.112Z,35.80
2019-02-27T00:30:24.566Z,36.33
2019-02-27T00:32:55.184Z,34.83
2019-02-27T00:35:25.612Z,34.47
2019-02-27T00:37:56.041Z,36.37
2019-02-27T00:40:26.452Z,35.23
2019-02-27T00:42:56.881Z,39.17
2019-02-27T00:45:27.594Z,39.20
2019-02-27T00:47:58.046Z,38.87
2019-02-27T00:50:28.516Z,39.73
2019-02-27T00:52:59.018Z,37.10
2019-02-27T00:55:29.596Z,39.60
2019-02-27T00:58:00.128Z,39.63
2019-02-27T01:00:30.587Z,39.43
2019-02-27T01:03:01.014Z,40.60
2019-02-27T01:05:31.715Z,39.73
2019-02-27T01:08:02.174Z,38.97
2019-02-27T01:10:32.612Z,41.33
2019-02-27T01:13:03.040Z,40.90
2019-02-27T01:15:33.455Z,40.07
2019-02-27T01:18:03.909Z,39.67
2019-02-27T01:20:34.680Z,39.43
2019-02-27T01:23:05.212Z,39.67
2019-02-27T01:25:35.616Z,41.23
2019-02-27T01:28:06.101Z,41.50
2019-02-27T01:30:36.610Z,40.90
2019-02-27T01:33:07.172Z,42.63
2019-02-27T01:35:37.636Z,41.27
2019-02-27T01:38:08.012Z,42.20
2019-02-27T01:40:38.442Z,37.97
2019-02-27T01:43:08.871Z,37.97
2019-02-27T01:45:39.396Z,38.87
2019-02-27T01:48:09.893Z,39.33
2019-02-27T01:50:40.661Z,39.13
2019-02-27T01:53:11.526Z,38.63
2019-02-27T01:55:42.026Z,42.73
2019-02-27T01:58:12.464Z,40.27
2019-02-27T02:00:42.881Z,39.10
2019-02-27T02:03:13.707Z,37.50
2019-02-27T02:05:44.811Z,37.00
2019-02-27T02:08:15.199Z,38.57
2019-02-27T02:10:45.795Z,37.60
2019-02-27T02:13:33.309Z,39.40
2019-02-27T02:16:41.474Z,43.33
2019-02-27T02:19:53.986Z,45.90
2019-02-27T02:23:14.259Z,42.03
2019-02-27T02:26:19.587Z,42.30
2019-02-27T02:29:23.230Z,42.57
2019-02-27T02:32:16.749Z,39.87
2019-02-27T02:35:34.730Z,45.00
2019-02-27T02:38:14.339Z,44.73
2019-02-27T02:41:27.685Z,46.13
2019-02-27T02:44:44.951Z,45.23
2019-02-27T02:47:37.384Z,43.00
2019-02-27T02:50:47.132Z,43.50
2019-02-27T02:53:30.412Z,43.23
2019-02-27T02:56:34.887Z,42.43
2019-02-27T02:59:59.469Z,40.67
2019-02-27T03:03:09.398Z,41.03
2019-02-27T03:06:11.574Z,40.50
2019-02-27T03:09:21.554Z,38.43
2019-02-27T03:12:31.113Z,39.73
2019-02-27T03:15:36.664Z,39.97
2019-02-27T03:18:46.815Z,42.33
2019-02-27T03:21:31.027Z,43.43
2019-02-27T03:24:45.937Z,44.07
2019-02-27T03:27:36.661Z,44.30
2019-02-27T03:31:16.047Z,44.37
2019-02-27T03:34:48.102Z,45.13
2019-02-27T03:37:48.061Z,40.77
2019-02-27T03:40:40.626Z,45.07
2019-02-27T03:43:46.800Z,45.77
2019-02-27T03:46:45.019Z,44.87
2019-02-27T03:50:04.951Z,44.87
2019-02-27T03:53:27.196Z,45.10
2019-02-27T03:56:22.390Z,49.53
2019-02-27T03:59:17.597Z,47.13
2019-02-27T04:02:32.072Z,49.23
2019-02-27T04:05:09.840Z,48.97
2019-02-27T04:08:11.997Z,47.90
2019-02-27T04:10:42.426Z,48.83
2019-02-27T04:13:12.893Z,48.80
2019-02-27T04:15:43.378Z,48.30
2019-02-27T04:18:11.555Z,48.50
2019-02-27T04:20:42.014Z,48.63
2019-02-27T04:23:12.825Z,49.33
2019-02-27T04:25:43.377Z,48.23
2019-02-27T04:28:14.020Z,47.43
2019-02-27T04:30:44.548Z,44.53
2019-02-27T04:33:15.104Z,49.07
2019-02-27T04:35:45.607Z,46.17
2019-02-27T04:38:16.030Z,44.27
2019-02-27T04:40:46.455Z,46.80
2019-02-27T04:43:16.921Z,47.07
2019-02-27T04:45:47.611Z,44.43
2019-02-27T04:48:18.042Z,47.10
2019-02-27T04:50:48.572Z,46.93
2019-02-27T04:53:19.007Z,47.27
2019-02-27T04:55:50.534Z,44.80
2019-02-27T04:58:21.794Z,43.40
2019-02-27T05:00:52.541Z,42.93
2019-02-27T05:03:22.976Z,47.30
2019-02-27T05:05:53.599Z,44.23
2019-02-27T05:08:26.935Z,45.53
2019-02-27T05:10:56.080Z,45.50
2019-02-27T05:13:26.518Z,46.67
2019-02-27T05:15:57.144Z,46.83
2019-02-27T05:18:29.500Z,42.70
2019-02-27T05:20:59.805Z,43.77
2019-02-27T05:23:30.884Z,43.87
2019-02-27T05:26:02.433Z,41.47
2019-02-27T05:28:34.956Z,46.00
2019-02-27T05:31:05.052Z,48.17
2019-02-27T05:33:36.449Z,50.03
2019-02-27T05:36:07.694Z,48.70
2019-02-27T05:38:38.253Z,49.63
2019-02-27T05:41:08.682Z,48.63
2019-02-27T05:43:39.107Z,45.30
2019-02-27T05:46:09.533Z,45.93
2019-02-27T05:48:39.963Z,42.93
2019-02-27T05:51:10.752Z,44.00
2019-02-27T05:53:41.362Z,39.60
2019-02-27T05:56:15.524Z,39.60
2019-02-27T05:58:43.994Z,40.17
2019-02-27T06:01:14.449Z,40.73
2019-02-27T06:03:46.555Z,43.93
2019-02-27T06:06:17.064Z,44.13
2019-02-27T06:08:47.690Z,46.97
2019-02-27T06:11:18.116Z,48.90
2019-02-27T06:13:48.533Z,50.13
2019-02-27T06:16:18.969Z,49.97
2019-02-27T06:18:49.384Z,47.87
2019-02-27T06:21:19.925Z,46.73
2019-02-27T06:23:50.457Z,47.33
2019-02-27T06:26:20.951Z,46.40
2019-02-27T06:28:51.402Z,45.37
2019-02-27T06:31:21.844Z,45.40
2019-02-27T06:33:52.273Z,43.97
2019-02-27T06:36:22.784Z,45.33
2019-02-27T06:38:53.250Z,44.00
2019-02-27T06:41:23.737Z,44.77
2019-02-27T06:43:54.177Z,44.63
2019-02-27T06:46:24.604Z,44.17
2019-02-27T06:48:56.444Z,47.37
2019-02-27T06:51:27.042Z,41.53
2019-02-27T06:53:57.756Z,47.20
2019-02-27T06:56:28.369Z,46.97
2019-02-27T06:58:59.100Z,49.53
2019-02-27T07:01:29.513Z,45.97
2019-02-27T07:04:02.257Z,40.43
2019-02-27T07:06:32.073Z,42.43
2019-02-27T07:09:02.428Z,45.93
2019-02-27T07:11:32.829Z,43.93
2019-02-27T07:14:03.286Z,43.20
2019-02-27T07:16:33.708Z,44.00
2019-02-27T07:19:04.138Z,44.70
2019-02-27T07:21:34.638Z,41.87
2019-02-27T07:24:05.311Z,43.47
2019-02-27T07:26:35.753Z,46.83
2019-02-27T07:29:06.163Z,48.27
2019-02-27T07:31:36.583Z,41.90
2019-02-27T07:34:07.168Z,45.50
2019-02-27T07:36:38.562Z,42.63
2019-02-27T07:39:09.921Z,36.20
2019-02-27T07:41:40.354Z,34.93
2019-02-27T07:44:11.789Z,33.57
2019-02-27T07:46:42.332Z,30.07
2019-02-27T07:49:12.755Z,30.07
2019-02-27T07:51:43.179Z,27.63
2019-02-27T07:54:13.529Z,27.30
2019-02-27T07:56:43.941Z,25.67
2019-02-27T07:59:14.530Z,26.23
2019-02-27T08:01:44.982Z,26.23
2019-02-27T08:04:19.010Z,26.67
2019-02-27T08:06:47.578Z,28.20
2019-02-27T08:09:18.325Z,25.77
2019-02-27T08:11:48.682Z,27.60
2019-02-27T08:14:19.396Z,25.97
2019-02-27T08:16:49.909Z,25.33
2019-02-27T08:19:20.324Z,25.40
2019-02-27T08:21:51.914Z,24.70
2019-02-27T08:24:24.729Z,25.37
2019-02-27T08:26:54.551Z,26.27
2019-02-27T08:29:25.035Z,24.53
2019-02-27T08:31:55.442Z,23.33
2019-02-27T08:34:25.877Z,24.70
2019-02-27T08:36:56.602Z,23.73
2019-02-27T08:39:27.110Z,24.30
2019-02-27T08:41:57.726Z,23.07
2019-02-27T08:44:28.193Z,22.67
2019-02-27T08:46:58.513Z,22.93
2019-02-27T08:49:28.941Z,24.00
2019-02-27T08:51:59.356Z,24.33
2019-02-27T08:54:31.961Z,23.32
2019-02-27T08:57:02.173Z,21.95
2019-02-27T08:59:33.058Z,21.37
2019-02-27T09:02:03.525Z,22.10
2019-02-27T09:04:33.962Z,21.20
2019-02-27T09:07:04.378Z,21.77
2019-02-27T09:09:36.230Z,21.40
2019-02-27T09:12:06.926Z,20.70
2019-02-27T09:14:37.313Z,21.70
2019-02-27T09:17:08.055Z,21.68
2019-02-27T09:19:39.294Z,21.05
2019-02-27T09:22:09.713Z,19.52
2019-02-27T09:24:40.128Z,21.77
2019-02-27T09:27:10.556Z,21.45
2019-02-27T09:29:40.997Z,19.85
2019-02-27T09:32:11.680Z,20.00
2019-02-27T09:34:43.506Z,21.00
2019-02-27T09:37:16.908Z,20.55
2019-02-27T09:39:47.481Z,21.33
2019-02-27T09:42:19.117Z,20.88
2019-02-27T09:44:50.225Z,19.67
2019-02-27T09:47:23.225Z,19.70
2019-02-27T09:49:54.250Z,19.35
2019-02-27T09:52:27.870Z,19.15
2019-02-27T09:54:57.805Z,20.12
2019-02-27T09:57:28.274Z,18.37
2019-02-27T09:59:58.816Z,19.75
2019-02-27T10:02:30.006Z,19.07
2019-02-27T10:05:03.068Z,17.92
2019-02-27T10:07:32.618Z,18.80
2019-02-27T10:10:03.078Z,18.67
2019-02-27T10:12:33.980Z,17.98
2019-02-27T10:15:04.498Z,17.07
2019-02-27T10:17:35.638Z,17.48
2019-02-27T10:20:06.497Z,17.73
2019-02-27T10:22:37.403Z,18.65
2019-02-27T10:25:08.821Z,19.67
2019-02-27T10:27:40.070Z,17.37
2019-02-27T10:30:11.747Z,18.48
2019-02-27T10:32:42.414Z,16.32
2019-02-27T10:35:14.146Z,14.30
2019-02-27T10:37:50.355Z,14.40
2019-02-27T10:40:18.449Z,14.30
2019-02-27T10:42:50.344Z,13.32
2019-02-27T10:45:21.016Z,13.08
2019-02-27T10:47:51.458Z,12.93
2019-02-27T10:50:21.885Z,12.37
2019-02-27T10:52:52.314Z,13.25
2019-02-27T10:55:22.945Z,14.68
2019-02-27T10:57:53.385Z,14.43
2019-02-27T11:00:27.753Z,19.92
2019-02-27T11:02:58.324Z,19.40
2019-02-27T11:05:29.874Z,21.42
2019-02-27T11:08:00.312Z,21.00
2019-02-27T11:10:30.843Z,22.02
2019-02-27T11:13:05.731Z,21.07
2019-02-27T11:15:33.950Z,21.57
2019-02-27T11:18:05.724Z,21.40
2019-02-27T11:20:36.328Z,22.45
2019-02-27T11:23:07.711Z,20.85
2019-02-27T11:25:38.524Z,21.48
2019-02-27T11:28:08.938Z,21.02
2019-02-27T11:30:39.488Z,20.37
2019-02-27T11:33:10.112Z,20.68
2019-02-27T11:35:40.553Z,21.20
2019-02-27T11:38:11.170Z,20.37
2019-02-27T11:40:42.594Z,19.57
2019-02-27T11:43:13.345Z,18.07
2019-02-27T11:45:43.769Z,20.62
2019-02-27T11:48:32.992Z,19.62
2019-02-27T11:51:03.557Z,20.57
2019-02-27T11:53:35.994Z,19.15
2019-02-27T11:56:06.173Z,19.30
2019-02-27T11:58:38.366Z,20.08
2019-02-27T12:01:08.931Z,20.17
2019-02-27T12:03:39.389Z,16.82
2019-02-27T12:06:09.804Z,11.88
2019-02-27T12:08:40.277Z,17.73
2019-02-27T12:11:29.526Z,17.20
2019-02-27T12:14:01.080Z,11.00
2019-02-27T12:16:33.350Z,12.82
2019-02-27T12:19:06.418Z,8.50
2019-02-27T12:21:36.342Z,9.35
2019-02-27T12:24:06.769Z,8.60
2019-02-27T12:26:37.647Z,8.90
2019-02-27T12:29:08.759Z,7.92
2019-02-27T12:31:39.278Z,8.10
2019-02-27T12:34:09.706Z,8.20
2019-02-27T12:36:40.142Z,8.58
2019-02-27T12:39:15.043Z,8.23
2019-02-27T12:41:42.736Z,7.83
2019-02-27T12:44:13.266Z,7.95
2019-02-27T12:46:43.680Z,8.08
2019-02-27T12:49:14.110Z,8.30
2019-02-27T12:51:44.565Z,7.80
2019-02-27T12:54:15.065Z,7.75
2019-02-27T12:56:45.562Z,6.87
2019-02-27T12:59:16.240Z,7.70
2019-02-27T13:01:50.772Z,6.58
2019-02-27T13:04:19.970Z,6.20
2019-02-27T13:06:50.578Z,6.35
2019-02-27T13:09:21.005Z,7.75
2019-02-27T13:11:51.434Z,6.45
2019-02-27T13:14:21.923Z,6.70
2019-02-27T13:16:52.644Z,7.20
2019-02-27T13:19:24.104Z,6.37
2019-02-27T13:21:55.150Z,6.25
2019-02-27T13:24:47.056Z,5.92
2019-02-27T13:27:17.138Z,5.53
2019-02-27T13:29:47.780Z,5.15
2019-02-27T13:32:18.473Z,6.42
2019-02-27T13:34:49.108Z,5.33
2019-02-27T13:37:19.577Z,6.67
2019-02-27T13:39:49.904Z,5.35
2019-02-27T13:42:20.314Z,4.55
2019-02-27T13:44:50.741Z,4.62
2019-02-27T13:47:21.268Z,5.08
2019-02-27T13:49:51.833Z,5.37
2019-02-27T13:52:25.675Z,5.37
2019-02-27T13:54:56.254Z,4.75
2019-02-27T13:57:26.668Z,4.97
2019-02-27T13:59:56.989Z,5.65
2019-02-27T14:02:27.621Z,5.00
2019-02-27T14:05:00.538Z,5.08
2019-02-27T14:07:30.123Z,5.28
2019-02-27T14:10:00.710Z,5.17
2019-02-27T14:12:33.165Z,4.70
2019-02-27T14:15:03.444Z,5.20
2019-02-27T14:17:33.868Z,4.97
2019-02-27T14:20:05.325Z,5.47
2019-02-27T14:22:40.391Z,5.00
2019-02-27T14:25:09.141Z,5.50
2019-02-27T14:27:39.558Z,5.62
2019-02-27T14:30:15.845Z,5.53
2019-02-27T14:32:47.331Z,6.55
2019-02-27T14:35:18.569Z,6.40
2019-02-27T14:37:50.137Z,5.75
2019-02-27T14:40:21.795Z,5.72
2019-02-27T14:42:54.831Z,6.47
2019-02-27T14:45:24.438Z,6.00
2019-02-27T14:47:54.953Z,5.95
2019-02-27T14:50:25.550Z,5.92
2019-02-27T14:52:55.938Z,6.70
2019-02-27T14:55:26.401Z,6.42
2019-02-27T14:57:56.893Z,7.05
2019-02-27T15:00:31.366Z,6.50
2019-02-27T15:03:01.931Z,7.45
2019-02-27T15:05:32.561Z,8.03
2019-02-27T15:08:03.103Z,7.10
2019-02-27T15:10:33.568Z,7.97
2019-02-27T15:13:04.969Z,7.67
2019-02-27T15:15:35.407Z,7.90
2019-02-27T15:18:06.106Z,8.58
2019-02-27T15:20:39.963Z,8.48
2019-02-27T15:23:08.626Z,8.38
2019-02-27T15:25:41.913Z,8.98
2019-02-27T15:28:11.243Z,9.50
2019-02-27T15:30:52.500Z,8.88
2019-02-27T15:33:23.053Z,8.60
2019-02-27T15:35:55.454Z,9.90
2019-02-27T15:38:25.532Z,9.68
2019-02-27T15:40:55.958Z,10.08
2019-02-27T15:43:26.385Z,9.88
2019-02-27T15:45:56.801Z,10.82
2019-02-27T15:48:27.228Z,9.93
2019-02-27T15:50:57.771Z,9.83
2019-02-27T15:53:28.394Z,10.88
2019-02-27T15:55:59.035Z,11.22
2019-02-27T15:58:29.645Z,11.15
2019-02-27T16:01:00.396Z,11.68
2019-02-27T16:03:31.020Z,11.05
2019-02-27T16:06:04.990Z,10.95
2019-02-27T16:08:33.660Z,10.95
2019-02-27T16:11:04.257Z,11.20
2019-02-27T16:13:35.748Z,11.70
2019-02-27T16:16:06.135Z,10.90
2019-02-27T16:18:36.921Z,11.93
2019-02-27T16:21:08.434Z,11.48
2019-02-27T16:23:38.954Z,12.15
2019-02-27T16:26:09.382Z,13.03
2019-02-27T16:28:39.806Z,12.47
2019-02-27T16:31:10.250Z,13.58
2019-02-27T16:33:59.709Z,12.93
2019-02-27T16:36:36.138Z,12.98
2019-02-27T16:39:06.950Z,13.08
2019-02-27T16:41:53.617Z,12.30
2019-02-27T16:44:24.165Z,12.33
2019-02-27T16:46:54.572Z,12.85
2019-02-27T16:49:25.120Z,13.88
2019-02-27T16:51:55.929Z,12.78
2019-02-27T16:54:27.263Z,12.98
2019-02-27T16:56:58.337Z,13.25
2019-02-27T16:59:29.189Z,12.78
2019-02-27T17:02:18.651Z,12.98
2019-02-27T17:04:49.159Z,12.85
2019-02-27T17:07:19.699Z,11.40
2019-02-27T17:09:50.190Z,12.78
2019-02-27T17:12:20.590Z,12.90
2019-02-27T17:14:50.980Z,13.62
2019-02-27T17:17:21.394Z,13.62
2019-02-27T17:19:53.095Z,13.65
2019-02-27T17:22:23.866Z,14.45
2019-02-27T17:24:55.170Z,12.70
2019-02-27T17:27:27.621Z,12.90
2019-02-27T17:30:00.050Z,12.43
2019-02-27T17:32:31.804Z,13.90
2019-02-27T17:35:02.278Z,13.83
2019-02-27T17:37:32.811Z,14.00
2019-02-27T17:40:03.610Z,12.85
2019-02-27T17:42:34.248Z,14.05
2019-02-27T17:45:23.673Z,13.60
2019-02-27T17:47:54.065Z,13.53
2019-02-27T17:50:24.670Z,13.57
2019-02-27T17:52:55.133Z,12.97
2019-02-27T17:55:25.778Z,13.73
2019-02-27T17:57:58.391Z,13.20
2019-02-27T18:00:35.751Z,13.40
2019-02-27T18:03:06.357Z,13.07
2019-02-27T18:05:36.882Z,12.63
2019-02-27T18:17:29.158Z,11.33
2019-02-27T18:19:59.703Z,11.80
2019-02-27T18:22:30.214Z,11.47
2019-02-27T18:25:00.655Z,12.87
2019-02-27T18:27:31.281Z,12.97
2019-02-27T18:30:01.814Z,12.83
2019-02-27T18:32:33.368Z,12.97
2019-02-27T18:35:03.845Z,12.47
2019-02-27T18:37:34.323Z,13.17
2019-02-27T18:40:05.329Z,12.53
2019-02-27T18:42:35.790Z,13.53
2019-02-27T18:45:06.679Z,15.00
2019-02-27T18:47:37.205Z,14.37
2019-02-27T18:50:07.822Z,13.60
2019-02-27T18:52:39.033Z,14.90
2019-02-27T18:55:11.061Z,14.30
2019-02-27T18:57:45.924Z,14.33
2019-02-27T19:00:18.199Z,13.40
2019-02-27T19:02:51.999Z,14.17
2019-02-27T19:05:21.106Z,14.43
2019-02-27T19:07:55.002Z,17.57
2019-02-27T19:10:24.366Z,18.13
2019-02-27T19:12:54.825Z,18.90
2019-02-27T19:15:46.392Z,18.23
2019-02-27T19:18:17.239Z,17.77
2019-02-27T19:20:47.724Z,16.87
2019-02-27T19:23:19.268Z,15.50
2019-02-27T19:25:49.744Z,15.67
2019-02-27T19:28:24.415Z,17.23
2019-02-27T19:30:52.667Z,15.97
2019-02-27T19:33:23.125Z,16.77
2019-02-27T19:35:56.338Z,17.40
2019-02-27T19:38:26.001Z,17.87
2019-02-27T19:40:56.774Z,17.00
2019-02-27T19:43:27.254Z,17.13
2019-02-27T19:45:57.800Z,16.83
2019-02-27T19:48:45.316Z,17.23
2019-02-27T19:51:17.151Z,18.17
2019-02-27T19:53:48.875Z,20.37
2019-02-27T19:56:19.301Z,18.53
2019-02-27T19:58:51.277Z,18.47
2019-02-27T20:01:22.088Z,18.17
2019-02-27T20:03:52.633Z,17.20
2019-02-27T20:06:24.626Z,17.10
2019-02-27T20:08:56.604Z,17.63
2019-02-27T20:11:27.624Z,17.40
2019-02-27T20:14:01.961Z,16.60
2019-02-27T20:16:30.604Z,16.63
2019-02-27T20:19:01.225Z,18.00
2019-02-27T20:21:31.869Z,17.20
2019-02-27T20:24:02.542Z,16.57
2019-02-27T20:26:33.334Z,16.67
2019-02-27T20:29:04.441Z,17.00
2019-02-27T20:31:36.077Z,16.03
2019-02-27T20:34:10.641Z,16.40
2019-02-27T20:36:38.628Z,16.40
2019-02-27T20:39:09.353Z,16.20
2019-02-27T20:41:43.109Z,16.77
2019-02-27T20:44:12.161Z,17.90
2019-02-27T20:46:42.529Z,15.87
2019-02-27T20:49:14.140Z,16.47
2019-02-27T20:51:47.656Z,17.43
2019-02-27T20:54:18.584Z,16.50
2019-02-27T20:56:55.340Z,17.17
2019-02-27T20:59:24.759Z,16.50
2019-02-27T21:01:53.361Z,16.37
2019-02-27T21:04:23.973Z,17.07
2019-02-27T21:06:54.437Z,18.03
2019-02-27T21:09:25.133Z,18.40
2019-02-27T21:11:55.566Z,17.87
2019-02-27T21:14:27.400Z,17.33
2019-02-27T21:16:58.219Z,17.50
2019-02-27T21:19:28.992Z,17.93
2019-02-27T21:22:01.243Z,18.67
2019-02-27T21:24:31.679Z,17.47
2019-02-27T21:27:02.115Z,17.77
2019-02-27T21:29:32.648Z,19.03
2019-02-27T21:32:03.062Z,17.40
2019-02-27T21:34:33.488Z,17.40
2019-02-27T21:37:03.913Z,17.20
2019-02-27T21:39:34.273Z,17.20
2019-02-27T21:42:04.972Z,17.57
2019-02-27T21:44:35.885Z,17.03
2019-02-27T21:47:06.262Z,18.07
2019-02-27T21:49:36.665Z,17.10
2019-02-27T21:52:09.236Z,17.00
2019-02-27T21:54:39.511Z,18.10
2019-02-27T21:57:09.994Z,18.23
2019-02-27T21:59:40.594Z,17.23
2019-02-27T22:02:11.259Z,16.93
2019-02-27T22:04:44.084Z,16.73
2019-02-27T22:07:13.820Z,17.20
2019-02-27T22:09:44.817Z,16.73
2019-02-27T22:12:15.944Z,17.47
2019-02-27T22:14:48.555Z,16.67
2019-02-27T22:17:18.449Z,17.50
2019-02-27T22:19:50.443Z,17.47
2019-02-27T22:22:21.237Z,17.23
2019-02-27T22:24:52.236Z,15.37
2019-02-27T22:27:23.716Z,17.07
2019-02-27T22:29:55.836Z,18.43
2019-02-27T22:32:26.414Z,16.60
2019-02-27T22:34:59.186Z,16.13
2019-02-27T22:37:28.908Z,16.10
2019-02-27T22:39:59.438Z,15.83
2019-02-27T22:42:29.864Z,15.87
2019-02-27T22:45:00.623Z,15.63
2019-02-27T22:47:32.673Z,16.43
2019-02-27T22:50:06.013Z,14.20
2019-02-27T22:52:35.152Z,13.90
2019-02-27T22:55:07.329Z,14.23
2019-02-27T22:57:37.902Z,13.30
2019-02-27T23:00:25.905Z,15.03
2019-02-27T23:02:57.745Z,14.40
2019-02-27T23:05:28.297Z,13.80
2019-02-27T23:07:58.705Z,12.43
2019-02-27T23:10:30.943Z,11.60
2019-02-27T23:13:01.416Z,10.50
2019-02-27T23:15:32.039Z,10.70
2019-02-27T23:18:05.901Z,11.00
2019-02-27T23:20:35.250Z,12.67
2019-02-27T23:23:05.674Z,11.47
2019-02-27T23:25:36.173Z,10.80
2019-02-27T23:28:06.641Z,12.03
2019-02-27T23:30:37.067Z,11.00
2019-02-27T23:33:07.486Z,10.97
2019-02-27T23:35:37.910Z,11.63
2019-02-27T23:38:08.337Z,10.47
2019-02-27T23:40:38.988Z,11.07
2019-02-27T23:43:09.410Z,11.20
2019-02-27T23:45:41.433Z,11.40
2019-02-27T23:48:12.105Z,12.37
2019-02-27T23:50:43.247Z,12.70
2019-02-27T23:53:15.242Z,14.57
2019-02-27T23:55:45.789Z,13.47
2019-02-27T23:58:16.329Z,13.17
